sensor_id;sensor_type;location;lat;lon;timestamp;pressure;altitude;pressure_sealevel;temperature;humidity
36380;BME280;22411;53.016;18.632;2022-11-20T00:01:54;100319.84;;;-1.87;100.00
36380;BME280;22411;53.016;18.632;2022-11-20T00:04:20;100324.19;;;-1.92;100.00
36380;BME280;22411;53.016;18.632;2022-11-20T00:06:46;100328.41;;;-1.90;100.00
36380;BME280;22411;53.016;18.632;2022-11-20T00:09:12;100323.22;;;-1.87;100.00
36380;BME280;22411;53.016;18.632;2022-11-20T00:11:38;100324.16;;;-1.89;100.00
36380;BME280;22411;53.016;18.632;2022-11-20T00:14:04;100322.53;;;-1.93;100.00
36380;BME280;22411;53.016;18.632;2022-11-20T00:16:32;100327.59;;;-1.93;100.00
36380;BME280;22411;53.016;18.632;2022-11-20T00:18:58;100336.13;;;-1.96;100.00
36380;BME280;22411;53.016;18.632;2022-11-20T00:21:27;100329.31;;;-1.95;100.00
36380;BME280;22411;53.016;18.632;2022-11-20T00:23:54;100334.41;;;-1.95;100.00
36380;BME280;22411;53.016;18.632;2022-11-20T00:26:23;100332.75;;;-1.96;100.00
36380;BME280;22411;53.016;18.632;2022-11-20T00:28:51;100329.41;;;-1.98;100.00
36380;BME280;22411;53.016;18.632;2022-11-20T00:31:18;100341.22;;;-1.97;100.00
36380;BME280;22411;53.016;18.632;2022-11-20T00:33:44;100338.78;;;-2.02;100.00
36380;BME280;22411;53.016;18.632;2022-11-20T00:36:17;100339.59;;;-2.01;100.00
36380;BME280;22411;53.016;18.632;2022-11-20T00:38:44;100342.97;;;-2.01;100.00
36380;BME280;22411;53.016;18.632;2022-11-20T00:41:13;100338.81;;;-2.03;100.00
36380;BME280;22411;53.016;18.632;2022-11-20T00:43:39;100333.69;;;-2.02;100.00
36380;BME280;22411;53.016;18.632;2022-11-20T00:46:07;100331.25;;;-2.06;100.00
36380;BME280;22411;53.016;18.632;2022-11-20T00:48:34;100334.69;;;-2.09;100.00
36380;BME280;22411;53.016;18.632;2022-11-20T00:51:01;100329.66;;;-2.11;100.00
36380;BME280;22411;53.016;18.632;2022-11-20T00:53:27;100330.63;;;-2.18;100.00
36380;BME280;22411;53.016;18.632;2022-11-20T00:55:55;100324.66;;;-2.15;100.00
36380;BME280;22411;53.016;18.632;2022-11-20T00:58:22;100332.28;;;-2.15;100.00
36380;BME280;22411;53.016;18.632;2022-11-20T01:00:49;100329.00;;;-2.22;100.00
36380;BME280;22411;53.016;18.632;2022-11-20T01:03:16;100341.72;;;-2.23;100.00
36380;BME280;22411;53.016;18.632;2022-11-20T01:05:43;100328.16;;;-2.22;100.00
36380;BME280;22411;53.016;18.632;2022-11-20T01:08:09;100327.34;;;-2.24;100.00
36380;BME280;22411;53.016;18.632;2022-11-20T01:10:35;100319.56;;;-2.15;100.00
36380;BME280;22411;53.016;18.632;2022-11-20T01:13:01;100327.31;;;-2.21;100.00
36380;BME280;22411;53.016;18.632;2022-11-20T01:15:46;100318.06;;;-2.25;100.00
36380;BME280;22411;53.016;18.632;2022-11-20T01:18:11;100314.81;;;-2.32;100.00
36380;BME280;22411;53.016;18.632;2022-11-20T01:20:38;100319.00;;;-2.29;100.00
36380;BME280;22411;53.016;18.632;2022-11-20T01:23:04;100311.28;;;-2.25;100.00
36380;BME280;22411;53.016;18.632;2022-11-20T01:25:30;100320.50;;;-2.19;100.00
36380;BME280;22411;53.016;18.632;2022-11-20T01:27:56;100315.41;;;-2.19;100.00
36380;BME280;22411;53.016;18.632;2022-11-20T01:30:22;100306.09;;;-2.19;100.00
36380;BME280;22411;53.016;18.632;2022-11-20T01:32:48;100311.22;;;-2.22;100.00
36380;BME280;22411;53.016;18.632;2022-11-20T01:35:14;100315.53;;;-2.25;100.00
36380;BME280;22411;53.016;18.632;2022-11-20T01:37:40;100312.97;;;-2.24;100.00
36380;BME280;22411;53.016;18.632;2022-11-20T01:40:07;100312.97;;;-2.24;100.00
36380;BME280;22411;53.016;18.632;2022-11-20T01:42:32;100316.34;;;-2.23;100.00
36380;BME280;22411;53.016;18.632;2022-11-20T01:45:56;100313.78;;;-2.23;100.00
36380;BME280;22411;53.016;18.632;2022-11-20T01:48:23;100316.41;;;-2.26;100.00
36380;BME280;22411;53.016;18.632;2022-11-20T01:50:52;100314.63;;;-2.23;100.00
36380;BME280;22411;53.016;18.632;2022-11-20T01:53:21;100313.09;;;-2.30;100.00
36380;BME280;22411;53.016;18.632;2022-11-20T01:55:53;100318.09;;;-2.27;100.00
36380;BME280;22411;53.016;18.632;2022-11-20T01:58:24;100317.25;;;-2.27;100.00
36380;BME280;22411;53.016;18.632;2022-11-20T02:00:53;100313.88;;;-2.26;100.00
36380;BME280;22411;53.016;18.632;2022-11-20T02:03:19;100319.88;;;-2.30;100.00
36380;BME280;22411;53.016;18.632;2022-11-20T02:08:31;100313.00;;;-2.27;100.00
36380;BME280;22411;53.016;18.632;2022-11-20T02:10:58;100311.28;;;-2.25;100.00
36380;BME280;22411;53.016;18.632;2022-11-20T02:13:23;100310.47;;;-2.27;100.00
36380;BME280;22411;53.016;18.632;2022-11-20T02:16:11;100302.97;;;-2.33;100.00
36380;BME280;22411;53.016;18.632;2022-11-20T02:18:38;100303.78;;;-2.31;100.00
36380;BME280;22411;53.016;18.632;2022-11-20T02:21:13;100302.22;;;-2.37;100.00
36380;BME280;22411;53.016;18.632;2022-11-20T02:24:04;100296.19;;;-2.32;100.00
36380;BME280;22411;53.016;18.632;2022-11-20T02:26:35;100292.81;;;-2.33;100.00
36380;BME280;22411;53.016;18.632;2022-11-20T02:29:03;100288.59;;;-2.34;100.00
36380;BME280;22411;53.016;18.632;2022-11-20T02:31:35;100289.53;;;-2.37;100.00
36380;BME280;22411;53.016;18.632;2022-11-20T02:34:01;100292.13;;;-2.41;100.00
36380;BME280;22411;53.016;18.632;2022-11-20T02:36:28;100282.91;;;-2.45;100.00
36380;BME280;22411;53.016;18.632;2022-11-20T02:38:56;100285.41;;;-2.44;100.00
36380;BME280;22411;53.016;18.632;2022-11-20T02:41:31;100294.00;;;-2.51;100.00
36380;BME280;22411;53.016;18.632;2022-11-20T02:43:56;100292.25;;;-2.49;100.00
36380;BME280;22411;53.016;18.632;2022-11-20T02:46:22;100290.56;;;-2.48;100.00
36380;BME280;22411;53.016;18.632;2022-11-20T02:48:48;100291.31;;;-2.43;100.00
36380;BME280;22411;53.016;18.632;2022-11-20T02:51:14;100282.16;;;-2.50;100.00
36380;BME280;22411;53.016;18.632;2022-11-20T02:53:40;100284.91;;;-2.63;100.00
36380;BME280;22411;53.016;18.632;2022-11-20T02:56:06;100278.19;;;-2.64;100.00
36380;BME280;22411;53.016;18.632;2022-11-20T02:58:32;100284.09;;;-2.63;100.00
36380;BME280;22411;53.016;18.632;2022-11-20T03:00:58;100281.50;;;-2.61;100.00
36380;BME280;22411;53.016;18.632;2022-11-20T03:03:24;100286.44;;;-2.54;100.00
36380;BME280;22411;53.016;18.632;2022-11-20T03:05:50;100289.00;;;-2.55;100.00
36380;BME280;22411;53.016;18.632;2022-11-20T03:08:16;100293.31;;;-2.60;100.00
36380;BME280;22411;53.016;18.632;2022-11-20T03:10:42;100284.81;;;-2.56;100.00
36380;BME280;22411;53.016;18.632;2022-11-20T03:13:08;100294.13;;;-2.58;100.00
36380;BME280;22411;53.016;18.632;2022-11-20T03:15:36;100283.25;;;-2.64;100.00
36380;BME280;22411;53.016;18.632;2022-11-20T03:18:03;100285.78;;;-2.65;100.00
36380;BME280;22411;53.016;18.632;2022-11-20T03:20:29;100287.47;;;-2.64;100.00
36380;BME280;22411;53.016;18.632;2022-11-20T03:22:55;100288.22;;;-2.57;100.00
36380;BME280;22411;53.016;18.632;2022-11-20T03:25:22;100284.81;;;-2.56;100.00
36380;BME280;22411;53.016;18.632;2022-11-20T03:27:47;100289.81;;;-2.53;100.00
36380;BME280;22411;53.016;18.632;2022-11-20T03:30:14;100291.50;;;-2.52;100.00
36380;BME280;22411;53.016;18.632;2022-11-20T03:32:40;100286.44;;;-2.52;100.00
36380;BME280;22411;53.016;18.632;2022-11-20T03:35:07;100289.16;;;-2.63;100.00
36380;BME280;22411;53.016;18.632;2022-11-20T03:37:32;100285.78;;;-2.64;100.00
36380;BME280;22411;53.016;18.632;2022-11-20T03:39:59;100281.47;;;-2.60;100.00
36380;BME280;22411;53.016;18.632;2022-11-20T03:42:24;100283.88;;;-2.52;100.00
36380;BME280;22411;53.016;18.632;2022-11-20T03:45:09;100281.28;;;-2.49;100.00
36380;BME280;22411;53.016;18.632;2022-11-20T03:47:35;100282.16;;;-2.50;100.00
36380;BME280;22411;53.016;18.632;2022-11-20T03:50:03;100276.28;;;-2.52;100.00
36380;BME280;22411;53.016;18.632;2022-11-20T03:52:29;100281.41;;;-2.55;100.00
36380;BME280;22411;53.016;18.632;2022-11-20T03:54:55;100273.84;;;-2.60;100.00
36380;BME280;22411;53.016;18.632;2022-11-20T03:57:20;100282.22;;;-2.55;100.00
36380;BME280;22411;53.016;18.632;2022-11-20T03:59:47;100282.22;;;-2.55;100.00
36380;BME280;22411;53.016;18.632;2022-11-20T04:02:12;100283.94;;;-2.55;100.00
36380;BME280;22411;53.016;18.632;2022-11-20T04:04:38;100284.72;;;-2.52;100.00
36380;BME280;22411;53.016;18.632;2022-11-20T04:07:04;100286.47;;;-2.55;100.00
36380;BME280;22411;53.016;18.632;2022-11-20T04:09:31;100282.19;;;-2.53;100.00
36380;BME280;22411;53.016;18.632;2022-11-20T04:11:56;100279.75;;;-2.58;100.00
36380;BME280;22411;53.016;18.632;2022-11-20T04:14:23;100278.00;;;-2.54;100.00
36380;BME280;22411;53.016;18.632;2022-11-20T04:16:48;100273.66;;;-2.49;100.00
36380;BME280;22411;53.016;18.632;2022-11-20T04:19:15;100273.69;;;-2.51;100.00
36380;BME280;22411;53.016;18.632;2022-11-20T04:21:43;100277.03;;;-2.49;100.00
36380;BME280;22411;53.016;18.632;2022-11-20T04:24:09;100271.88;;;-2.44;100.00
36380;BME280;22411;53.016;18.632;2022-11-20T04:26:39;100267.66;;;-2.45;100.00
36380;BME280;22411;53.016;18.632;2022-11-20T04:29:05;100265.16;;;-2.47;100.00
36380;BME280;22411;53.016;18.632;2022-11-20T04:31:33;100267.72;;;-2.48;100.00
36380;BME280;22411;53.016;18.632;2022-11-20T04:34:04;100268.59;;;-2.49;100.00
36380;BME280;22411;53.016;18.632;2022-11-20T04:36:31;100265.22;;;-2.50;100.00
36380;BME280;22411;53.016;18.632;2022-11-20T04:39:00;100270.44;;;-2.57;100.00
36380;BME280;22411;53.016;18.632;2022-11-20T04:41:28;100277.22;;;-2.58;100.00
36380;BME280;22411;53.016;18.632;2022-11-20T04:43:57;100272.94;;;-2.56;100.00
36380;BME280;22411;53.016;18.632;2022-11-20T04:46:25;100271.31;;;-2.60;100.00
36380;BME280;22411;53.016;18.632;2022-11-20T04:48:52;100274.66;;;-2.56;100.00
36380;BME280;22411;53.016;18.632;2022-11-20T04:51:18;100272.00;;;-2.50;100.00
36380;BME280;22411;53.016;18.632;2022-11-20T04:53:45;100267.72;;;-2.47;100.00
36380;BME280;22411;53.016;18.632;2022-11-20T04:56:12;100261.06;;;-2.54;100.00
36380;BME280;22411;53.016;18.632;2022-11-20T04:58:39;100257.69;;;-2.54;100.00
36380;BME280;22411;53.016;18.632;2022-11-20T05:01:16;100259.38;;;-2.55;100.00
36380;BME280;22411;53.016;18.632;2022-11-20T05:03:43;100255.22;;;-2.57;100.00
36380;BME280;22411;53.016;18.632;2022-11-20T05:06:11;100257.63;;;-2.51;100.00
36380;BME280;22411;53.016;18.632;2022-11-20T05:08:38;100264.44;;;-2.53;100.00
36380;BME280;22411;53.016;18.632;2022-11-20T05:11:10;100265.34;;;-2.56;100.00
36380;BME280;22411;53.016;18.632;2022-11-20T05:13:37;100262.00;;;-2.58;100.00
36380;BME280;22411;53.016;18.632;2022-11-20T05:16:06;100257.81;;;-2.60;100.00
36380;BME280;22411;53.016;18.632;2022-11-20T05:18:33;100262.78;;;-2.56;100.00
36380;BME280;22411;53.016;18.632;2022-11-20T05:20:59;100255.91;;;-2.49;100.00
36380;BME280;22411;53.016;18.632;2022-11-20T05:23:26;100264.25;;;-2.44;100.00
36380;BME280;22411;53.016;18.632;2022-11-20T05:25:56;100255.06;;;-2.50;100.00
36380;BME280;22411;53.016;18.632;2022-11-20T05:28:23;100253.34;;;-2.49;100.00
36380;BME280;22411;53.016;18.632;2022-11-20T05:30:49;100256.78;;;-2.50;100.00
36380;BME280;22411;53.016;18.632;2022-11-20T05:33:16;100245.75;;;-2.48;100.00
36380;BME280;22411;53.016;18.632;2022-11-20T05:35:43;100250.81;;;-2.49;100.00
36380;BME280;22411;53.016;18.632;2022-11-20T05:38:10;100242.41;;;-2.51;100.00
36380;BME280;22411;53.016;18.632;2022-11-20T05:40:36;100243.13;;;-2.45;100.00
36380;BME280;22411;53.016;18.632;2022-11-20T05:43:03;100242.34;;;-2.48;100.00
36380;BME280;22411;53.016;18.632;2022-11-20T05:45:30;100244.88;;;-2.47;100.00
36380;BME280;22411;53.016;18.632;2022-11-20T05:48:00;100243.16;;;-2.46;100.00
36380;BME280;22411;53.016;18.632;2022-11-20T05:50:27;100243.91;;;-2.41;100.00
36380;BME280;22411;53.016;18.632;2022-11-20T05:52:54;100242.13;;;-2.38;100.00
36380;BME280;22411;53.016;18.632;2022-11-20T05:55:20;100241.38;;;-2.41;100.00
36380;BME280;22411;53.016;18.632;2022-11-20T05:57:47;100240.53;;;-2.43;100.00
36380;BME280;22411;53.016;18.632;2022-11-20T06:00:14;100238.84;;;-2.43;100.00
36380;BME280;22411;53.016;18.632;2022-11-20T06:02:41;100241.47;;;-2.46;100.00
36380;BME280;22411;53.016;18.632;2022-11-20T06:05:07;100228.75;;;-2.46;100.00
36380;BME280;22411;53.016;18.632;2022-11-20T06:07:33;100235.53;;;-2.46;100.00
36380;BME280;22411;53.016;18.632;2022-11-20T06:09:59;100246.47;;;-2.43;100.00
36380;BME280;22411;53.016;18.632;2022-11-20T06:12:25;100238.00;;;-2.42;100.00
36380;BME280;22411;53.016;18.632;2022-11-20T06:14:51;100242.19;;;-2.41;100.00
36380;BME280;22411;53.016;18.632;2022-11-20T06:17:17;100248.00;;;-2.34;100.00
36380;BME280;22411;53.016;18.632;2022-11-20T06:19:43;100251.44;;;-2.37;100.00
36380;BME280;22411;53.016;18.632;2022-11-20T06:22:09;100244.69;;;-2.39;100.00
36380;BME280;22411;53.016;18.632;2022-11-20T06:24:34;100247.25;;;-2.39;100.00
36380;BME280;22411;53.016;18.632;2022-11-20T06:27:01;100249.75;;;-2.38;100.00
36380;BME280;22411;53.016;18.632;2022-11-20T06:29:26;100246.38;;;-2.37;100.00
36380;BME280;22411;53.016;18.632;2022-11-20T06:31:52;100247.25;;;-2.39;100.00
36380;BME280;22411;53.016;18.632;2022-11-20T06:34:18;100237.16;;;-2.42;100.00
36380;BME280;22411;53.016;18.632;2022-11-20T06:36:45;100244.78;;;-2.44;100.00
36380;BME280;22411;53.016;18.632;2022-11-20T06:39:11;100238.78;;;-2.40;100.00
36380;BME280;22411;53.016;18.632;2022-11-20T06:41:37;100239.63;;;-2.39;100.00
36380;BME280;22411;53.016;18.632;2022-11-20T06:44:04;100243.91;;;-2.41;100.00
36380;BME280;22411;53.016;18.632;2022-11-20T06:46:31;100240.66;;;-2.48;100.00
36380;BME280;22411;53.016;18.632;2022-11-20T06:49:08;100240.50;;;-2.40;100.00
36380;BME280;22411;53.016;18.632;2022-11-20T06:51:34;100238.84;;;-2.43;100.00
36380;BME280;22411;53.016;18.632;2022-11-20T06:54:00;100243.91;;;-2.41;100.00
36380;BME280;22411;53.016;18.632;2022-11-20T06:56:27;100235.47;;;-2.42;100.00
36380;BME280;22411;53.016;18.632;2022-11-20T06:58:53;100231.19;;;-2.40;100.00
36380;BME280;22411;53.016;18.632;2022-11-20T07:01:19;100240.41;;;-2.35;100.00
36380;BME280;22411;53.016;18.632;2022-11-20T07:03:45;100239.56;;;-2.36;100.00
36380;BME280;22411;53.016;18.632;2022-11-20T07:06:14;100237.06;;;-2.38;100.00
36380;BME280;22411;53.016;18.632;2022-11-20T07:08:39;100228.50;;;-2.32;100.00
36380;BME280;22411;53.016;18.632;2022-11-20T07:11:06;100232.72;;;-2.32;100.00
36380;BME280;22411;53.016;18.632;2022-11-20T07:13:33;100225.00;;;-2.26;100.00
36380;BME280;22411;53.016;18.632;2022-11-20T07:16:03;100236.66;;;-2.16;100.00
36380;BME280;22411;53.016;18.632;2022-11-20T07:18:30;100235.78;;;-2.17;100.00
36380;BME280;22411;53.016;18.632;2022-11-20T07:20:59;100239.19;;;-2.16;100.00
36380;BME280;22411;53.016;18.632;2022-11-20T07:23:24;100240.16;;;-2.23;100.00
36380;BME280;22411;53.016;18.632;2022-11-20T07:25:51;100235.81;;;-2.18;100.00
36380;BME280;22411;53.016;18.632;2022-11-20T07:28:16;100242.66;;;-2.22;100.00
36380;BME280;22411;53.016;18.632;2022-11-20T07:30:42;100228.13;;;-2.14;100.00
36380;BME280;22411;53.016;18.632;2022-11-20T07:33:08;100231.50;;;-2.13;100.00
36380;BME280;22411;53.016;18.632;2022-11-20T07:35:34;100240.72;;;-2.09;100.00
36380;BME280;22411;53.016;18.632;2022-11-20T07:38:02;100236.53;;;-2.12;100.00
36380;BME280;22411;53.016;18.632;2022-11-20T07:40:28;100236.53;;;-2.10;100.00
36380;BME280;22411;53.016;18.632;2022-11-20T07:42:54;100239.84;;;-2.08;100.00
36380;BME280;22411;53.016;18.632;2022-11-20T07:45:23;100237.28;;;-2.06;100.00
36380;BME280;22411;53.016;18.632;2022-11-20T07:47:49;100238.22;;;-2.11;100.00
36380;BME280;22411;53.016;18.632;2022-11-20T07:50:16;100239.72;;;-2.00;100.00
36380;BME280;22411;53.016;18.632;2022-11-20T07:52:42;100227.00;;;-2.02;100.00
36380;BME280;22411;53.016;18.632;2022-11-20T07:55:09;100233.75;;;-1.99;100.00
36380;BME280;22411;53.016;18.632;2022-11-20T07:57:35;100233.84;;;-2.04;100.00
36380;BME280;22411;53.016;18.632;2022-11-20T08:00:02;100231.22;;;-1.99;100.00
36380;BME280;22411;53.016;18.632;2022-11-20T08:02:28;100240.53;;;-2.00;100.00
36380;BME280;22411;53.016;18.632;2022-11-20T08:04:55;100237.97;;;-1.98;100.00
36380;BME280;22411;53.016;18.632;2022-11-20T08:07:20;100239.72;;;-2.02;100.00
36380;BME280;22411;53.016;18.632;2022-11-20T08:09:47;100234.69;;;-2.03;100.00
36380;BME280;22411;53.016;18.632;2022-11-20T08:12:20;100232.97;;;-2.03;100.00
36380;BME280;22411;53.016;18.632;2022-11-20T08:15:05;100229.50;;;-1.99;100.00
36380;BME280;22411;53.016;18.632;2022-11-20T08:17:31;100229.47;;;-1.97;100.00
36380;BME280;22411;53.016;18.632;2022-11-20T08:19:58;100224.28;;;-1.93;100.00
36380;BME280;22411;53.016;18.632;2022-11-20T08:22:24;100222.44;;;-1.85;100.00
36380;BME280;22411;53.016;18.632;2022-11-20T08:24:50;100219.03;;;-1.85;100.00
36380;BME280;22411;53.016;18.632;2022-11-20T08:27:16;100219.06;;;-1.87;100.00
36380;BME280;22411;53.016;18.632;2022-11-20T08:29:42;100220.59;;;-1.79;100.00
36380;BME280;22411;53.016;18.632;2022-11-20T08:32:08;100213.69;;;-1.73;100.00
36380;BME280;22411;53.016;18.632;2022-11-20T08:34:38;100216.03;;;-1.65;100.00
36380;BME280;22411;53.016;18.632;2022-11-20T08:37:04;100213.50;;;-1.65;100.00
36380;BME280;22411;53.016;18.632;2022-11-20T08:39:30;100221.94;;;-1.63;100.00
36380;BME280;22411;53.016;18.632;2022-11-20T08:41:56;100215.06;;;-1.60;100.00
36380;BME280;22411;53.016;18.632;2022-11-20T08:44:23;100210.75;;;-1.56;100.00
36380;BME280;22411;53.016;18.632;2022-11-20T08:46:49;100207.22;;;-1.50;100.00
36380;BME280;22411;53.016;18.632;2022-11-20T08:49:15;100208.13;;;-1.51;100.00
36380;BME280;22411;53.016;18.632;2022-11-20T08:51:42;100201.47;;;-1.57;100.00
36380;BME280;22411;53.016;18.632;2022-11-20T08:54:08;100199.81;;;-1.58;100.00
36380;BME280;22411;53.016;18.632;2022-11-20T08:56:35;100207.34;;;-1.55;100.00
36380;BME280;22411;53.016;18.632;2022-11-20T08:59:01;100209.09;;;-1.59;100.00
36380;BME280;22411;53.016;18.632;2022-11-20T09:01:28;100206.44;;;-1.52;100.00
36380;BME280;22411;53.016;18.632;2022-11-20T09:03:55;100202.94;;;-1.48;100.00
36380;BME280;22411;53.016;18.632;2022-11-20T09:06:22;100202.88;;;-1.45;100.00
36380;BME280;22411;53.016;18.632;2022-11-20T09:08:55;100207.19;;;-1.49;100.00
36380;BME280;22411;53.016;18.632;2022-11-20T09:11:22;100200.19;;;-1.39;100.00
36380;BME280;22411;53.016;18.632;2022-11-20T09:13:49;100198.19;;;-1.26;100.00
36380;BME280;22411;53.016;18.632;2022-11-20T09:16:15;100192.19;;;-1.24;100.00
36380;BME280;22411;53.016;18.632;2022-11-20T09:18:41;100192.84;;;-1.17;100.00
36380;BME280;22411;53.016;18.632;2022-11-20T09:21:12;100190.34;;;-1.19;100.00
36380;BME280;22411;53.016;18.632;2022-11-20T09:23:39;100187.16;;;-1.27;100.00
36380;BME280;22411;53.016;18.632;2022-11-20T09:26:09;100187.09;;;-1.24;100.00
36380;BME280;22411;53.016;18.632;2022-11-20T09:28:36;100185.22;;;-1.16;100.00
36380;BME280;22411;53.016;18.632;2022-11-20T09:31:06;100186.00;;;-1.14;100.00
36380;BME280;22411;53.016;18.632;2022-11-20T09:33:32;100186.81;;;-1.13;100.00
36380;BME280;22411;53.016;18.632;2022-11-20T09:36:00;100181.75;;;-1.13;100.00
36380;BME280;22411;53.016;18.632;2022-11-20T09:38:27;100182.41;;;-1.07;100.00
36380;BME280;22411;53.016;18.632;2022-11-20T09:41:06;100175.09;;;-0.86;100.00
36380;BME280;22411;53.016;18.632;2022-11-20T09:44:01;100173.91;;;-0.74;100.00
36380;BME280;22411;53.016;18.632;2022-11-20T09:49:58;100177.31;;;-1.07;100.00
36380;BME280;22411;53.016;18.632;2022-11-20T09:54:52;100183.78;;;-1.26;100.00
36380;BME280;22411;53.016;18.632;2022-11-20T09:57:21;100180.72;;;-1.40;100.00
36380;BME280;22411;53.016;18.632;2022-11-20T09:59:57;100174.88;;;-1.44;100.00
36380;BME280;22411;53.016;18.632;2022-11-20T10:05:27;100175.03;;;-1.50;100.00
36380;BME280;22411;53.016;18.632;2022-11-20T10:08:39;100169.78;;;-1.44;100.00
36380;BME280;22411;53.016;18.632;2022-11-20T10:11:07;100171.59;;;-1.47;100.00
36380;BME280;22411;53.016;18.632;2022-11-20T10:14:08;100170.47;;;-1.37;100.00
36380;BME280;22411;53.016;18.632;2022-11-20T10:19:54;100163.88;;;-1.12;100.00
36380;BME280;22411;53.016;18.632;2022-11-20T10:25:15;100167.69;;;-0.94;100.00
36380;BME280;22411;53.016;18.632;2022-11-20T10:28:08;100159.44;;;-1.03;100.00
36380;BME280;22411;53.016;18.632;2022-11-20T10:30:47;100156.69;;;-0.96;100.00
36380;BME280;22411;53.016;18.632;2022-11-20T10:33:22;100160.75;;;-0.89;100.00
36380;BME280;22411;53.016;18.632;2022-11-20T10:36:26;100157.22;;;-0.85;100.00
36380;BME280;22411;53.016;18.632;2022-11-20T10:39:01;100152.13;;;-0.83;100.00
36380;BME280;22411;53.016;18.632;2022-11-20T10:41:34;100157.88;;;-0.76;100.00
36380;BME280;22411;53.016;18.632;2022-11-20T10:44:28;100157.88;;;-0.76;100.00
36380;BME280;22411;53.016;18.632;2022-11-20T10:47:17;100152.72;;;-0.73;100.00
36380;BME280;22411;53.016;18.632;2022-11-20T10:49:50;100156.09;;;-0.73;100.00
36380;BME280;22411;53.016;18.632;2022-11-20T10:58:13;100148.63;;;-0.79;100.00
36380;BME280;22411;53.016;18.632;2022-11-20T11:00:39;100143.59;;;-0.82;100.00
36380;BME280;22411;53.016;18.632;2022-11-20T11:03:32;100152.84;;;-0.78;100.00
36380;BME280;22411;53.016;18.632;2022-11-20T11:08:34;100150.47;;;-0.84;100.00
36380;BME280;22411;53.016;18.632;2022-11-20T11:11:13;100142.66;;;-0.80;100.00
36380;BME280;22411;53.016;18.632;2022-11-20T11:13:43;100147.63;;;-0.75;100.00
36380;BME280;22411;53.016;18.632;2022-11-20T11:16:40;100138.44;;;-0.79;100.00
36380;BME280;22411;53.016;18.632;2022-11-20T11:19:13;100138.50;;;-0.82;100.00
36380;BME280;22411;53.016;18.632;2022-11-20T11:22:10;100141.84;;;-0.80;100.00
36380;BME280;22411;53.016;18.632;2022-11-20T11:24:53;100131.88;;;-0.88;100.00
36380;BME280;22411;53.016;18.632;2022-11-20T11:27:22;100137.03;;;-0.91;100.00
36380;BME280;22411;53.016;18.632;2022-11-20T11:30:03;100131.84;;;-0.86;100.00
36380;BME280;22411;53.016;18.632;2022-11-20T11:32:34;100134.44;;;-0.88;100.00
36380;BME280;22411;53.016;18.632;2022-11-20T11:35:11;100132.66;;;-0.84;100.00
36380;BME280;22411;53.016;18.632;2022-11-20T11:37:47;100125.03;;;-0.86;100.00
36380;BME280;22411;53.016;18.632;2022-11-20T11:40:19;100125.19;;;-0.92;100.00
36380;BME280;22411;53.016;18.632;2022-11-20T11:43:05;100128.41;;;-0.85;100.00
36380;BME280;22411;53.016;18.632;2022-11-20T11:45:58;100124.25;;;-0.88;100.00
36380;BME280;22411;53.016;18.632;2022-11-20T11:48:29;100125.03;;;-0.86;100.00
36380;BME280;22411;53.016;18.632;2022-11-20T11:50:57;100127.50;;;-0.83;100.00
36380;BME280;22411;53.016;18.632;2022-11-20T11:53:27;100119.69;;;-0.76;100.00
36380;BME280;22411;53.016;18.632;2022-11-20T11:56:14;100123.06;;;-0.76;100.00
36380;BME280;22411;53.016;18.632;2022-11-20T11:58:51;100116.97;;;-0.70;100.00
36380;BME280;22411;53.016;18.632;2022-11-20T12:01:38;100121.16;;;-0.68;100.00
36380;BME280;22411;53.016;18.632;2022-11-20T12:04:44;100114.25;;;-0.64;100.00
36380;BME280;22411;53.016;18.632;2022-11-20T12:07:52;100109.16;;;-0.64;100.00
36380;BME280;22411;53.016;18.632;2022-11-20T12:13:13;100099.66;;;-0.58;100.00
36380;BME280;22411;53.016;18.632;2022-11-20T12:15:45;100103.84;;;-0.57;100.00
36380;BME280;22411;53.016;18.632;2022-11-20T12:18:18;100103.84;;;-0.57;100.00
36380;BME280;22411;53.016;18.632;2022-11-20T12:21:12;100097.94;;;-0.57;100.00
36380;BME280;22411;53.016;18.632;2022-11-20T12:24:18;100097.09;;;-0.58;100.00
36380;BME280;22411;53.016;18.632;2022-11-20T12:43:27;100080.16;;;-0.59;100.00
36380;BME280;22411;53.016;18.632;2022-11-20T12:54:51;100067.41;;;-0.59;100.00
36380;BME280;22411;53.016;18.632;2022-11-20T12:57:45;100060.44;;;-0.52;100.00
36380;BME280;22411;53.016;18.632;2022-11-20T13:00:21;100062.75;;;-0.44;100.00
36380;BME280;22411;53.016;18.632;2022-11-20T13:08:39;100055.63;;;-0.33;100.00
36380;BME280;22411;53.016;18.632;2022-11-20T13:11:17;100061.41;;;-0.28;100.00
36380;BME280;22411;53.016;18.632;2022-11-20T13:16:50;100050.31;;;-0.27;100.00
36380;BME280;22411;53.016;18.632;2022-11-20T13:19:18;100053.81;;;-0.30;100.00
36380;BME280;22411;53.016;18.632;2022-11-20T13:21:47;100057.25;;;-0.31;100.00
36380;BME280;22411;53.016;18.632;2022-11-20T13:29:46;100038.69;;;-0.34;100.00
36380;BME280;22411;53.016;18.632;2022-11-20T13:32:20;100041.22;;;-0.34;100.00
36380;BME280;22411;53.016;18.632;2022-11-20T13:34:57;100036.19;;;-0.36;100.00
36380;BME280;22411;53.016;18.632;2022-11-20T13:37:30;100033.50;;;-0.31;100.00
36380;BME280;22411;53.016;18.632;2022-11-20T13:40:12;100038.75;;;-0.37;100.00
36380;BME280;22411;53.016;18.632;2022-11-20T13:42:44;100040.53;;;-0.39;100.00
36380;BME280;22411;53.016;18.632;2022-11-20T13:45:29;100038.06;;;-0.42;100.00
36380;BME280;22411;53.016;18.632;2022-11-20T13:48:25;100035.50;;;-0.41;100.00
36380;BME280;22411;53.016;18.632;2022-11-20T13:51:07;100025.53;;;-0.48;100.00
36380;BME280;22411;53.016;18.632;2022-11-20T13:54:47;100029.91;;;-0.52;100.00
36380;BME280;22411;53.016;18.632;2022-11-20T13:56:47;100029.72;;;-0.46;100.00